createdAt,value
2022-08-19T00:01:13.044Z,73.10
2022-08-19T00:04:01.459Z,72.91
2022-08-19T00:06:49.496Z,73.03
2022-08-19T00:09:36.632Z,72.55
2022-08-19T00:12:16.470Z,73.08
2022-08-19T00:15:10.437Z,72.43
2022-08-19T00:17:52.890Z,72.88
2022-08-19T00:20:39.450Z,71.90
2022-08-19T00:23:26.426Z,71.68
2022-08-19T00:26:06.517Z,72.18
2022-08-19T00:28:54.442Z,72.03
2022-08-19T00:31:42.427Z,72.09
2022-08-19T00:34:23.727Z,72.02
2022-08-19T00:37:12.429Z,71.62
2022-08-19T00:40:00.514Z,71.83
2022-08-19T00:42:40.489Z,71.41
2022-08-19T00:45:30.463Z,71.57
2022-08-19T00:48:15.192Z,71.57
2022-08-19T00:51:03.405Z,71.70
2022-08-19T00:53:44.543Z,71.64
2022-08-19T00:56:32.417Z,71.95
2022-08-19T00:59:56.169Z,72.31
2022-08-19T01:02:27.413Z,72.76
2022-08-19T01:05:12.700Z,72.53
2022-08-19T01:07:59.396Z,72.93
2022-08-19T01:10:55.409Z,72.92
2022-08-19T01:13:50.450Z,72.86
2022-08-19T01:16:38.516Z,72.89
2022-08-19T01:19:44.363Z,72.71
2022-08-19T01:22:33.725Z,72.52
2022-08-19T01:25:15.054Z,72.75
2022-08-19T01:27:56.646Z,72.71
2022-08-19T01:30:51.401Z,72.58
2022-08-19T01:33:32.107Z,72.45
2022-08-19T01:36:28.393Z,72.21
2022-08-19T01:39:13.809Z,71.97
2022-08-19T01:42:02.370Z,72.39
2022-08-19T01:44:42.779Z,72.81
2022-08-19T01:47:29.336Z,72.79
2022-08-19T01:50:18.364Z,73.09
2022-08-19T01:53:06.536Z,72.91
2022-08-19T01:55:49.610Z,73.23
2022-08-19T01:58:41.368Z,73.59
2022-08-19T02:01:28.399Z,73.79
2022-08-19T02:04:11.468Z,73.80
2022-08-19T02:06:58.321Z,74.29
2022-08-19T02:09:39.467Z,74.68
2022-08-19T02:12:26.324Z,74.60
2022-08-19T02:15:08.520Z,74.49
2022-08-19T02:17:56.310Z,74.69
2022-08-19T02:20:36.783Z,75.17
2022-08-19T02:23:24.305Z,75.05
2022-08-19T02:26:11.317Z,75.80
2022-08-19T02:28:58.309Z,75.84
2022-08-19T02:31:47.296Z,75.86
2022-08-19T02:34:27.751Z,75.61
2022-08-19T02:37:35.072Z,75.64
2022-08-19T02:40:16.170Z,75.55
2022-08-19T02:43:03.307Z,75.95
2022-08-19T02:45:43.805Z,76.42
2022-08-19T02:48:32.289Z,75.72
2022-08-19T02:51:21.892Z,75.99
2022-08-19T03:13:25.112Z,82.30
2022-08-19T03:16:06.496Z,82.06
2022-08-19T03:18:54.101Z,82.25
2022-08-19T03:21:42.107Z,82.19
2022-08-19T03:24:23.358Z,81.96
2022-08-19T03:27:13.054Z,81.74
2022-08-19T03:29:53.183Z,81.08
2022-08-19T03:32:45.295Z,80.60
2022-08-19T03:35:25.225Z,79.94
2022-08-19T03:38:14.088Z,80.00
2022-08-19T03:40:54.158Z,79.03
2022-08-19T03:43:46.091Z,79.03
2022-08-19T03:46:29.262Z,78.44
2022-08-19T03:49:16.054Z,78.36
2022-08-19T03:51:58.279Z,77.82
2022-08-19T03:54:46.094Z,77.25
2022-08-19T03:57:31.671Z,77.25
2022-08-19T04:00:20.062Z,76.70
2022-08-19T04:03:00.874Z,76.13
2022-08-19T04:05:48.097Z,75.46
2022-08-19T04:08:28.224Z,74.07
2022-08-19T04:11:21.054Z,72.97
2022-08-19T04:16:56.151Z,70.06
2022-08-19T04:19:38.052Z,67.85
2022-08-19T04:22:26.039Z,66.92
2022-08-19T04:25:09.136Z,65.76
2022-08-19T04:27:56.012Z,65.71
2022-08-19T04:30:42.976Z,64.54
2022-08-19T04:33:28.634Z,63.42
2022-08-19T04:36:15.979Z,62.44
2022-08-19T04:39:02.043Z,62.03
2022-08-19T04:42:07.015Z,60.58
2022-08-19T04:44:47.420Z,59.55
2022-08-19T04:47:47.908Z,60.94
2022-08-19T04:50:41.042Z,58.80
2022-08-19T04:53:21.418Z,58.96
2022-08-19T04:56:15.013Z,59.07
2022-08-19T04:58:55.144Z,58.20
2022-08-19T05:01:43.994Z,56.76
2022-08-19T05:04:27.082Z,56.62
2022-08-19T05:07:15.032Z,55.95
2022-08-19T05:10:01.995Z,55.14
2022-08-19T05:12:49.024Z,54.25
2022-08-19T05:15:29.099Z,53.68
2022-08-19T05:18:45.960Z,51.02
2022-08-19T05:21:46.597Z,51.91
2022-08-19T05:24:33.944Z,50.47
2022-08-19T05:27:14.758Z,49.63
2022-08-19T05:30:02.012Z,48.08
2022-08-19T05:32:48.986Z,48.80
2022-08-19T05:35:35.938Z,47.38
2022-08-19T05:38:22.984Z,46.65
2022-08-19T05:41:14.636Z,46.67
2022-08-19T05:44:00.977Z,46.21
2022-08-19T05:46:44.614Z,43.98
2022-08-19T05:49:30.988Z,43.84
2022-08-19T05:52:26.180Z,44.65
2022-08-19T05:55:06.432Z,44.51
2022-08-19T05:57:52.946Z,43.39
2022-08-19T06:00:33.095Z,42.74
2022-08-19T06:03:19.939Z,42.37
2022-08-19T06:06:00.571Z,41.13
2022-08-19T06:08:46.925Z,40.14
2022-08-19T06:11:35.933Z,39.49
2022-08-19T06:14:28.880Z,40.73
2022-08-19T06:17:16.933Z,39.96
2022-08-19T06:20:05.941Z,40.21
2022-08-19T06:22:54.908Z,40.40
2022-08-19T06:25:36.345Z,37.81
2022-08-19T06:28:23.105Z,38.77
2022-08-19T06:31:13.891Z,38.98
2022-08-19T06:33:55.035Z,36.27
2022-08-19T06:36:45.926Z,35.94
2022-08-19T06:39:40.959Z,35.00
2022-08-19T06:42:22.409Z,35.20
2022-08-19T06:45:11.887Z,34.18
2022-08-19T06:48:00.094Z,35.00
2022-08-19T06:50:45.087Z,35.46
2022-08-19T06:53:25.753Z,34.78
2022-08-19T06:56:12.879Z,34.13
2022-08-19T06:58:53.931Z,34.86
2022-08-19T07:01:40.880Z,33.45
2022-08-19T07:04:33.079Z,33.81
2022-08-19T07:07:21.333Z,33.23
2022-08-19T07:10:09.874Z,33.06
2022-08-19T07:12:57.905Z,35.23
2022-08-19T07:15:39.697Z,38.43
2022-08-19T07:18:27.224Z,38.85
2022-08-19T07:21:12.331Z,42.24
2022-08-19T07:24:01.885Z,42.66
2022-08-19T07:26:52.107Z,42.73
2022-08-19T07:29:31.969Z,40.98
2022-08-19T07:32:18.860Z,42.06
2022-08-19T07:34:59.079Z,41.50
2022-08-19T07:37:46.897Z,41.41
2022-08-19T07:40:26.979Z,41.04
2022-08-19T07:43:23.336Z,38.86
2022-08-19T07:46:03.053Z,37.19
2022-08-19T07:48:52.849Z,38.52
2022-08-19T07:51:36.292Z,38.47
2022-08-19T07:54:24.790Z,38.48
2022-08-19T07:57:05.970Z,37.50
2022-08-19T07:59:52.833Z,36.99
2022-08-19T08:02:32.953Z,38.64
2022-08-19T08:05:41.779Z,38.65
2022-08-19T08:08:48.860Z,38.67
2022-08-19T08:11:35.821Z,38.30
2022-08-19T08:14:29.601Z,38.11
2022-08-19T08:17:31.136Z,37.02
2022-08-19T08:20:27.965Z,35.20
2022-08-19T08:23:29.822Z,34.64
2022-08-19T08:26:16.759Z,34.70
2022-08-19T08:29:12.306Z,35.43
2022-08-19T08:32:01.808Z,34.34
2022-08-19T08:34:42.721Z,34.68
2022-08-19T08:37:29.773Z,34.27
2022-08-19T08:40:50.781Z,32.23
2022-08-19T08:43:49.815Z,33.17
2022-08-19T08:46:43.388Z,32.11
2022-08-19T08:49:42.786Z,29.19
2022-08-19T08:52:36.378Z,26.65
2022-08-19T08:55:36.728Z,24.67
2022-08-19T08:59:04.828Z,22.70
2022-08-19T09:01:51.817Z,19.16
2022-08-19T09:04:32.270Z,19.93
2022-08-19T09:07:38.874Z,19.64
2022-08-19T09:35:50.166Z,19.17
2022-08-19T09:38:34.882Z,18.36
2022-08-19T09:41:28.735Z,20.70
2022-08-19T09:44:13.928Z,24.23
2022-08-19T09:47:00.686Z,28.05
2022-08-19T09:49:41.738Z,25.58
2022-08-19T09:52:32.661Z,21.26
2022-08-19T09:55:19.678Z,19.21
2022-08-19T09:58:08.676Z,18.38
2022-08-19T10:00:51.022Z,20.73
2022-08-19T10:03:40.689Z,24.71
2022-08-19T10:06:45.520Z,20.15
2022-08-19T10:09:34.129Z,18.27
2022-08-19T10:12:17.863Z,16.67
2022-08-19T10:15:06.652Z,15.12
2022-08-19T10:17:48.066Z,18.31
2022-08-19T10:20:42.663Z,16.99
2022-08-19T10:23:24.048Z,17.05
2022-08-19T10:26:14.687Z,16.60
2022-08-19T10:28:57.222Z,18.19
2022-08-19T10:32:01.491Z,18.84
2022-08-19T10:34:57.637Z,15.37
2022-08-19T10:37:57.401Z,15.50
2022-08-19T10:40:37.785Z,14.45
2022-08-19T10:43:25.659Z,17.07
2022-08-19T10:46:14.155Z,16.69
2022-08-19T10:49:03.638Z,15.41
2022-08-19T10:52:04.626Z,16.05
2022-08-19T10:55:14.659Z,19.96
2022-08-19T10:58:03.287Z,22.46
2022-08-19T11:00:48.102Z,27.52
2022-08-19T11:03:38.629Z,35.20
2022-08-19T11:06:20.631Z,39.36
2022-08-19T11:09:12.627Z,39.34
2022-08-19T11:12:03.057Z,47.21
2022-08-19T11:14:51.632Z,51.32
2022-08-19T11:17:32.661Z,47.14
2022-08-19T11:20:19.588Z,44.00
2022-08-19T11:23:00.019Z,49.74
2022-08-19T11:25:53.635Z,56.78
2022-08-19T11:28:34.090Z,60.50
2022-08-19T11:31:31.598Z,61.52
2022-08-19T11:34:22.588Z,62.92
2022-08-19T11:37:04.648Z,65.33
2022-08-19T11:39:51.883Z,68.12
2022-08-19T11:42:58.602Z,67.44
2022-08-19T11:45:45.573Z,66.35
2022-08-19T11:48:33.570Z,67.03
2022-08-19T11:51:16.339Z,63.16
2022-08-19T11:54:03.586Z,65.77
2022-08-19T11:56:51.586Z,65.68
2022-08-19T11:59:31.758Z,63.84
2022-08-19T12:02:18.559Z,64.92
2022-08-19T12:05:10.199Z,64.01
2022-08-19T12:07:58.531Z,64.79
2022-08-19T12:10:38.712Z,65.00
2022-08-19T12:13:26.542Z,64.64
2022-08-19T12:16:07.507Z,64.59
2022-08-19T12:18:54.541Z,64.08
2022-08-19T12:21:35.636Z,65.62
2022-08-19T12:24:22.534Z,65.00
2022-08-19T12:27:12.583Z,64.28
2022-08-19T12:29:59.592Z,65.02
2022-08-19T12:32:47.548Z,63.80
2022-08-19T12:35:45.491Z,65.27
2022-08-19T12:38:26.011Z,66.28
2022-08-19T12:41:14.516Z,64.60
2022-08-19T12:44:01.541Z,65.71
2022-08-19T12:46:48.532Z,65.77
2022-08-19T12:49:53.388Z,65.23
2022-08-19T12:52:35.541Z,63.98
2022-08-19T12:55:22.480Z,64.35
2022-08-19T12:58:02.655Z,64.36
2022-08-19T13:00:49.523Z,64.17
2022-08-19T13:03:40.449Z,65.17
2022-08-19T13:06:27.491Z,66.13
2022-08-19T13:09:14.538Z,66.08
2022-08-19T13:12:01.469Z,67.13
2022-08-19T13:14:49.487Z,66.80
2022-08-19T13:17:36.620Z,66.01
2022-08-19T13:20:18.479Z,65.89
2022-08-19T13:23:05.498Z,65.66
2022-08-19T13:25:52.507Z,66.04
2022-08-19T13:28:58.498Z,66.78
2022-08-19T13:31:59.461Z,66.66
2022-08-19T13:34:47.500Z,66.48
2022-08-19T13:37:49.541Z,66.25
2022-08-19T13:40:36.459Z,64.73
2022-08-19T13:43:26.615Z,63.39
2022-08-19T13:46:07.449Z,63.28
2022-08-19T13:48:51.756Z,63.31
2022-08-19T13:51:38.442Z,62.48
2022-08-19T13:54:26.494Z,63.97
2022-08-19T13:57:06.594Z,64.90
2022-08-19T13:59:53.456Z,64.90
2022-08-19T14:02:40.454Z,64.23
2022-08-19T14:05:21.898Z,65.47
2022-08-19T14:08:08.468Z,63.86
2022-08-19T14:10:56.441Z,63.08
2022-08-19T14:13:43.460Z,63.50
2022-08-19T14:16:23.925Z,63.54
2022-08-19T14:19:10.431Z,63.93
2022-08-19T14:21:50.935Z,64.24
2022-08-19T14:24:37.398Z,64.14
2022-08-19T14:27:18.009Z,63.63
2022-08-19T14:30:04.591Z,64.60
2022-08-19T14:32:44.901Z,65.38
2022-08-19T14:35:31.433Z,64.00
2022-08-19T14:38:17.578Z,65.41
2022-08-19T14:41:05.435Z,64.58
2022-08-19T14:43:47.502Z,65.24
2022-08-19T14:46:38.418Z,66.13
2022-08-19T14:49:19.470Z,66.79
2022-08-19T14:52:06.401Z,65.87
2022-08-19T14:54:53.435Z,64.17
2022-08-19T14:57:33.534Z,65.05
2022-08-19T15:00:21.428Z,65.66
2022-08-19T15:03:01.529Z,66.06
2022-08-19T15:05:48.379Z,64.26
2022-08-19T15:08:28.516Z,64.98
2022-08-19T15:28:11.392Z,68.46
2022-08-19T15:30:59.410Z,68.61
2022-08-19T15:33:42.946Z,67.84
2022-08-19T15:36:30.390Z,68.08
2022-08-19T15:39:19.386Z,68.32
2022-08-19T15:42:07.371Z,68.23
2022-08-19T15:44:47.530Z,67.48
2022-08-19T15:47:37.359Z,67.54
2022-08-19T15:50:22.725Z,67.59
2022-08-19T15:53:13.383Z,68.01
2022-08-19T15:55:53.553Z,68.99
2022-08-19T15:58:59.368Z,70.36
2022-08-19T16:01:58.233Z,70.53
2022-08-19T16:05:04.368Z,70.36
2022-08-19T16:07:44.468Z,69.68
2022-08-19T16:10:32.366Z,69.32
2022-08-19T16:13:19.354Z,70.12
2022-08-19T16:16:06.383Z,70.70
2022-08-19T16:18:47.590Z,70.97
2022-08-19T16:21:39.350Z,71.01
2022-08-19T16:24:23.481Z,70.87
2022-08-19T16:27:10.348Z,70.52
2022-08-19T16:29:50.475Z,70.92
2022-08-19T16:32:37.332Z,70.76
2022-08-19T16:35:17.462Z,70.84
2022-08-19T16:38:04.358Z,71.36
2022-08-19T16:40:51.334Z,70.95
2022-08-19T16:43:38.345Z,71.47
2022-08-19T16:46:18.676Z,71.83
2022-08-19T16:49:06.393Z,71.56
2022-08-19T16:51:47.519Z,71.78
2022-08-19T16:54:35.365Z,72.40
2022-08-19T16:57:16.149Z,72.41
2022-08-19T17:00:03.324Z,73.03
2022-08-19T17:02:43.518Z,72.61
2022-08-19T17:05:30.286Z,72.87
2022-08-19T17:08:10.416Z,72.66
2022-08-19T17:11:16.914Z,72.07
2022-08-19T17:13:58.311Z,72.44
2022-08-19T17:16:47.384Z,73.01
2022-08-19T17:19:28.383Z,72.59
2022-08-19T17:22:15.330Z,72.58
2022-08-19T17:25:02.297Z,72.84
2022-08-19T17:27:56.366Z,72.91
2022-08-19T17:30:36.942Z,73.23
2022-08-19T17:33:24.305Z,73.45
2022-08-19T17:36:06.656Z,73.35
2022-08-19T17:38:53.252Z,73.06
2022-08-19T17:41:41.272Z,73.25
2022-08-19T17:44:21.424Z,73.24
2022-08-19T17:47:08.272Z,74.21
2022-08-19T17:49:48.460Z,74.80
2022-08-19T17:52:35.278Z,73.85
2022-08-19T17:55:15.539Z,74.00
2022-08-19T17:58:02.219Z,75.23
2022-08-19T18:00:52.734Z,75.30
2022-08-19T18:03:41.293Z,75.96
2022-08-19T18:06:29.255Z,76.51
2022-08-19T18:09:09.718Z,75.77
2022-08-19T18:11:56.237Z,75.13
2022-08-19T18:14:39.376Z,73.13
2022-08-19T18:17:31.251Z,72.47
2022-08-19T18:20:13.595Z,72.32
2022-08-19T18:23:41.226Z,71.75
2022-08-19T18:26:05.122Z,71.51
2022-08-19T18:28:52.213Z,71.58
2022-08-19T18:31:33.161Z,71.69
2022-08-19T18:34:20.224Z,72.02
2022-08-19T18:37:00.596Z,71.93
2022-08-19T18:40:05.272Z,72.18
2022-08-19T18:43:05.040Z,72.74
2022-08-19T18:46:12.216Z,72.42
2022-08-19T18:49:11.206Z,72.94
2022-08-19T18:51:51.573Z,72.51
2022-08-19T18:54:39.211Z,72.72
2022-08-19T18:57:24.881Z,72.37
2022-08-19T19:00:14.215Z,72.85
2022-08-19T19:02:54.699Z,72.72
2022-08-19T19:05:41.201Z,72.80
2022-08-19T19:08:26.991Z,73.35
2022-08-19T19:11:15.211Z,73.46
2022-08-19T19:14:02.179Z,74.00
2022-08-19T19:16:55.143Z,74.74
2022-08-19T19:19:43.193Z,74.88
2022-08-19T19:22:31.207Z,75.33
2022-08-19T19:25:18.190Z,75.02
2022-08-19T19:28:05.354Z,75.07
2022-08-19T19:30:46.205Z,75.54
2022-08-19T19:33:28.320Z,76.00
2022-08-19T19:36:15.142Z,76.09
2022-08-19T19:38:56.705Z,75.96
2022-08-19T19:41:43.138Z,76.07
2022-08-19T19:44:30.344Z,76.27
2022-08-19T19:47:18.120Z,76.20
2022-08-19T19:50:15.583Z,75.95
2022-08-19T19:53:03.149Z,75.57
2022-08-19T19:55:43.638Z,75.07
2022-08-19T19:58:30.159Z,75.25
2022-08-19T20:01:21.767Z,75.06
2022-08-19T20:04:05.325Z,75.93
2022-08-19T20:06:53.113Z,76.22
2022-08-19T20:09:58.783Z,76.65
2022-08-19T20:12:40.542Z,77.83
2022-08-19T20:15:28.129Z,77.45
2022-08-19T20:18:15.080Z,77.65
2022-08-19T20:20:55.318Z,77.54
2022-08-19T20:23:42.130Z,77.54
2022-08-19T20:26:32.296Z,77.78
2022-08-19T20:29:38.073Z,77.89
2022-08-19T20:32:19.267Z,78.40
2022-08-19T20:35:07.098Z,78.72
2022-08-19T20:37:47.272Z,78.81
2022-08-19T20:40:35.083Z,79.00
2022-08-19T20:43:17.461Z,78.85
2022-08-19T20:46:04.088Z,78.97
2022-08-19T20:48:44.241Z,79.34
2022-08-19T20:51:35.064Z,78.67
2022-08-19T20:54:15.196Z,79.12
2022-08-19T20:57:02.074Z,79.29
2022-08-19T20:59:49.062Z,78.85
2022-08-19T21:02:36.058Z,79.14
2022-08-19T21:05:25.271Z,79.32
2022-08-19T21:08:09.139Z,79.23
2022-08-19T21:10:56.096Z,79.10
2022-08-19T21:13:36.857Z,79.16
2022-08-19T21:16:24.054Z,79.56
2022-08-19T21:19:11.064Z,79.53
2022-08-19T21:21:58.020Z,79.43
2022-08-19T21:24:38.662Z,79.26
2022-08-19T21:27:25.054Z,79.39
2022-08-19T21:30:13.038Z,80.12
2022-08-19T21:33:00.039Z,79.62
2022-08-19T21:35:40.473Z,79.82
2022-08-19T21:38:27.032Z,79.55
2022-08-19T21:41:14.035Z,79.94
2022-08-19T21:43:54.197Z,80.26
2022-08-19T21:46:41.011Z,79.73
2022-08-19T21:49:21.258Z,79.63
2022-08-19T21:52:09.010Z,79.38
2022-08-19T21:54:49.167Z,79.31
2022-08-19T21:57:36.013Z,79.31
2022-08-19T22:00:26.184Z,78.87
2022-08-19T22:03:13.004Z,79.05
2022-08-19T22:05:59.994Z,79.14
2022-08-19T22:08:49.026Z,78.92
2022-08-19T22:11:33.895Z,78.80
2022-08-19T22:14:20.972Z,78.58
2022-08-19T22:17:03.952Z,78.23
2022-08-19T22:19:51.028Z,78.28
2022-08-19T22:22:34.083Z,78.28
2022-08-19T22:25:30.048Z,77.85
2022-08-19T22:28:28.957Z,77.60
2022-08-19T22:31:11.049Z,77.96
2022-08-19T22:33:58.994Z,77.67
2022-08-19T22:36:39.472Z,77.62
2022-08-19T22:39:25.948Z,76.86
2022-08-19T22:42:07.004Z,77.06
2022-08-19T22:44:53.957Z,76.39
2022-08-19T22:47:35.559Z,75.76
2022-08-19T22:50:25.937Z,75.53
2022-08-19T22:53:14.964Z,75.47
2022-08-19T22:56:01.954Z,74.70
2022-08-19T22:58:50.096Z,74.98
2022-08-19T23:01:30.724Z,74.55
2022-08-19T23:04:17.927Z,75.76
2022-08-19T23:06:58.100Z,76.31
2022-08-19T23:09:44.961Z,76.97
2022-08-19T23:12:45.400Z,77.73
2022-08-19T23:15:37.943Z,78.24
2022-08-19T23:18:20.182Z,78.47
2022-08-19T23:21:07.898Z,78.49
2022-08-19T23:23:48.043Z,78.44
2022-08-19T23:26:36.141Z,78.06
2022-08-19T23:29:48.484Z,78.50
2022-08-19T23:32:35.261Z,78.29
2022-08-19T23:35:21.923Z,77.89
2022-08-19T23:38:10.919Z,78.31
2022-08-19T23:40:57.928Z,78.61
2022-08-19T23:43:47.890Z,78.67
2022-08-19T23:46:31.010Z,78.41
2022-08-19T23:49:29.887Z,79.26
2022-08-19T23:52:10.032Z,79.34
2022-08-19T23:54:57.006Z,79.27
2022-08-19T23:57:37.023Z,79.28
